createdAt,value
2023-02-12T00:00:49.964Z,7.65
2023-02-12T00:03:17.402Z,7.65
2023-02-12T00:05:44.110Z,7.22
2023-02-12T00:08:12.260Z,7.73
2023-02-12T00:10:44.870Z,7.91
2023-02-12T00:13:11.835Z,7.94
2023-02-12T00:15:39.408Z,8.32
2023-02-12T00:18:06.091Z,8.45
2023-02-12T00:20:32.733Z,8.25
2023-02-12T00:22:59.427Z,8.08
2023-02-12T00:25:26.131Z,8.68
2023-02-12T00:27:52.849Z,8.07
2023-02-12T00:30:19.562Z,7.66
2023-02-12T00:32:46.519Z,9.04
2023-02-12T00:35:13.229Z,8.50
2023-02-12T00:37:39.909Z,8.98
2023-02-12T00:40:06.952Z,8.48
2023-02-12T00:42:33.647Z,8.44
2023-02-12T00:45:00.320Z,8.74
2023-02-12T00:47:26.984Z,8.67
2023-02-12T00:49:53.642Z,7.87
2023-02-12T00:52:20.370Z,8.14
2023-02-12T00:54:47.055Z,8.49
2023-02-12T00:57:13.726Z,8.51
2023-02-12T00:59:42.410Z,8.10
2023-02-12T01:02:09.125Z,7.86
2023-02-12T01:04:35.852Z,8.16
2023-02-12T01:07:02.589Z,8.47
2023-02-12T01:09:29.343Z,8.56
2023-02-12T01:11:56.030Z,8.72
2023-02-12T01:14:22.710Z,9.06
2023-02-12T01:16:49.366Z,8.44
2023-02-12T01:19:16.020Z,8.15
2023-02-12T01:21:42.680Z,8.11
2023-02-12T01:24:09.579Z,8.61
2023-02-12T01:26:36.329Z,8.32
2023-02-12T01:29:05.354Z,7.98
2023-02-12T01:31:33.405Z,8.35
2023-02-12T01:34:00.402Z,8.84
2023-02-12T01:36:27.684Z,8.46
2023-02-12T01:38:54.412Z,9.15
2023-02-12T01:41:22.281Z,9.18
2023-02-12T01:44:07.181Z,7.98
2023-02-12T01:46:33.939Z,9.12
2023-02-12T01:49:00.691Z,8.89
2023-02-12T01:51:27.392Z,8.74
2023-02-12T01:53:54.605Z,8.18
2023-02-12T01:56:21.460Z,9.14
2023-02-12T01:58:48.123Z,8.92
2023-02-12T02:01:18.948Z,8.20
2023-02-12T02:03:46.430Z,8.15
2023-02-12T02:06:14.670Z,7.68
2023-02-12T02:08:41.356Z,7.63
2023-02-12T02:11:27.959Z,7.72
2023-02-12T02:14:13.433Z,7.82
2023-02-12T02:16:40.880Z,7.56
2023-02-12T02:19:20.604Z,8.03
2023-02-12T02:22:14.511Z,8.04
2023-02-12T02:24:41.178Z,7.42
2023-02-12T02:27:07.819Z,8.15
2023-02-12T02:29:40.329Z,8.18
2023-02-12T02:32:18.806Z,7.63
2023-02-12T02:34:51.019Z,7.74
2023-02-12T02:37:27.984Z,7.78
2023-02-12T02:39:57.771Z,7.94
2023-02-12T02:42:37.739Z,7.52
2023-02-12T02:45:21.916Z,7.92
2023-02-12T02:47:50.385Z,7.11
2023-02-12T02:50:17.772Z,7.47
2023-02-12T02:52:49.599Z,7.35
2023-02-12T02:55:18.177Z,7.27
2023-02-12T02:57:50.615Z,7.06
2023-02-12T03:00:28.432Z,7.95
2023-02-12T03:03:15.445Z,7.82
2023-02-12T03:05:46.545Z,8.03
2023-02-12T03:08:16.028Z,8.68
2023-02-12T03:10:46.294Z,7.46
2023-02-12T03:13:17.507Z,7.84
2023-02-12T03:15:52.220Z,7.67
2023-02-12T03:18:22.843Z,7.94
2023-02-12T03:20:50.835Z,7.73
2023-02-12T03:23:18.676Z,7.66
2023-02-12T03:25:50.319Z,7.59
2023-02-12T03:28:18.906Z,7.68
2023-02-12T03:31:05.961Z,7.07
2023-02-12T03:33:35.747Z,7.27
2023-02-12T03:36:12.171Z,7.30
2023-02-12T03:38:40.034Z,6.71
2023-02-12T03:41:09.802Z,7.01
2023-02-12T03:43:46.501Z,7.44
2023-02-12T03:46:33.225Z,7.29
2023-02-12T03:49:01.919Z,6.92
2023-02-12T03:51:28.590Z,6.48
2023-02-12T03:53:55.450Z,6.36
2023-02-12T03:56:30.492Z,6.46
2023-02-12T03:58:57.143Z,6.14
2023-02-12T04:01:23.977Z,6.26
2023-02-12T04:03:50.721Z,6.23
2023-02-12T04:06:25.937Z,5.76
2023-02-12T04:08:52.736Z,5.73
2023-02-12T04:11:22.459Z,5.98
2023-02-12T04:13:52.284Z,5.81
2023-02-12T04:16:38.097Z,5.92
2023-02-12T04:19:05.314Z,5.96
2023-02-12T04:21:32.015Z,5.66
2023-02-12T04:24:17.609Z,5.74
2023-02-12T04:26:55.390Z,5.61
2023-02-12T04:29:24.797Z,5.56
2023-02-12T04:31:58.826Z,5.58
2023-02-12T04:34:45.356Z,5.79
2023-02-12T04:37:22.837Z,5.94
2023-02-12T04:39:49.569Z,5.68
2023-02-12T04:42:16.253Z,5.72
2023-02-12T04:44:43.602Z,5.76
2023-02-12T04:47:13.473Z,5.80
2023-02-12T04:49:40.337Z,5.39
2023-02-12T04:52:07.266Z,5.72
2023-02-12T04:54:34.424Z,5.69
2023-02-12T04:57:01.119Z,6.01
2023-02-12T04:59:27.784Z,5.77
2023-02-12T05:01:54.430Z,5.76
2023-02-12T05:04:21.282Z,5.71
2023-02-12T05:06:47.995Z,5.82
2023-02-12T05:09:16.006Z,5.47
2023-02-12T05:11:42.833Z,5.50
2023-02-12T05:14:09.587Z,6.00
2023-02-12T05:16:36.239Z,5.86
2023-02-12T05:19:02.980Z,6.38
2023-02-12T05:21:29.695Z,6.09
2023-02-12T05:23:56.408Z,6.50
2023-02-12T05:26:23.140Z,6.02
2023-02-12T05:28:49.854Z,6.31
2023-02-12T05:31:20.032Z,6.25
2023-02-12T05:33:48.154Z,6.33
2023-02-12T05:36:15.925Z,6.44
2023-02-12T05:38:42.636Z,6.00
2023-02-12T05:41:13.357Z,6.04
2023-02-12T05:43:40.117Z,5.92
2023-02-12T05:46:06.993Z,6.09
2023-02-12T05:48:33.846Z,5.89
2023-02-12T05:51:06.583Z,5.38
2023-02-12T05:53:33.321Z,6.19
2023-02-12T05:56:13.562Z,6.25
2023-02-12T05:58:40.707Z,6.07
2023-02-12T06:01:11.664Z,6.30
2023-02-12T06:03:38.435Z,5.86
2023-02-12T06:06:05.396Z,6.27
2023-02-12T06:08:32.119Z,6.36
2023-02-12T06:11:03.093Z,6.18
2023-02-12T06:13:30.327Z,6.67
2023-02-12T06:15:57.704Z,6.55
2023-02-12T06:18:24.725Z,7.20
2023-02-12T06:20:51.650Z,6.87
2023-02-12T06:23:18.419Z,7.44
2023-02-12T06:25:45.129Z,7.66
2023-02-12T06:28:11.801Z,7.50
2023-02-12T06:30:38.562Z,7.07
2023-02-12T06:33:05.220Z,8.05
2023-02-12T06:35:31.890Z,8.16
2023-02-12T06:37:58.595Z,8.19
2023-02-12T06:40:25.290Z,8.13
2023-02-12T06:42:52.041Z,7.93
2023-02-12T06:45:18.735Z,7.89
2023-02-12T06:47:45.379Z,8.35
2023-02-12T06:50:12.026Z,9.40
2023-02-12T06:52:38.713Z,9.24
2023-02-12T06:55:05.518Z,9.46
2023-02-12T06:57:32.222Z,10.07
2023-02-12T06:59:58.869Z,9.55
2023-02-12T07:02:25.565Z,9.14
2023-02-12T07:04:52.318Z,9.79
2023-02-12T07:07:19.019Z,10.22
2023-02-12T07:09:45.670Z,9.57
2023-02-12T07:12:12.320Z,9.19
2023-02-12T07:14:39.060Z,10.30
2023-02-12T07:17:08.034Z,9.40
2023-02-12T07:19:34.685Z,11.24
2023-02-12T07:22:01.396Z,11.19
2023-02-12T07:24:28.058Z,11.84
2023-02-12T07:26:54.730Z,11.28
2023-02-12T07:29:21.400Z,11.55
2023-02-12T07:31:48.150Z,11.26
2023-02-12T07:34:14.813Z,11.07
2023-02-12T07:36:42.370Z,11.15
2023-02-12T07:39:10.718Z,10.16
2023-02-12T07:41:37.507Z,9.70
2023-02-12T07:44:07.556Z,9.15
2023-02-12T07:46:35.680Z,9.01
2023-02-12T07:49:04.474Z,8.49
2023-02-12T07:51:32.867Z,9.09
2023-02-12T07:54:00.786Z,10.09
2023-02-12T07:56:32.708Z,10.30
2023-02-12T07:59:03.372Z,11.34
2023-02-12T08:01:39.216Z,10.99
2023-02-12T08:04:07.465Z,11.61
2023-02-12T08:06:35.419Z,10.28
2023-02-12T08:09:03.934Z,12.83
2023-02-12T08:11:30.625Z,12.55
2023-02-12T08:13:57.660Z,13.59
2023-02-12T08:16:25.276Z,13.91
2023-02-12T08:18:52.227Z,11.47
2023-02-12T08:21:22.377Z,12.03
2023-02-12T08:23:52.195Z,12.49
2023-02-12T08:26:19.953Z,12.73
2023-02-12T08:28:47.792Z,14.48
2023-02-12T08:31:16.177Z,12.98
2023-02-12T08:33:44.437Z,12.00
2023-02-12T08:36:12.091Z,11.65
2023-02-12T08:38:39.199Z,13.15
2023-02-12T08:41:07.133Z,12.77
2023-02-12T08:43:33.910Z,11.25
2023-02-12T08:46:10.718Z,13.59
2023-02-12T08:48:37.590Z,12.92
2023-02-12T08:51:11.522Z,12.16
2023-02-12T08:53:38.887Z,12.68
2023-02-12T08:56:05.723Z,11.87
2023-02-12T08:58:32.917Z,11.38
2023-02-12T09:00:59.719Z,11.04
2023-02-12T09:03:26.412Z,10.30
2023-02-12T09:05:53.406Z,10.40
2023-02-12T09:08:20.210Z,10.23
2023-02-12T09:10:46.888Z,10.83
2023-02-12T09:13:13.772Z,11.90
2023-02-12T09:15:43.282Z,12.34
2023-02-12T09:18:11.557Z,12.33
2023-02-12T09:20:39.903Z,12.75
2023-02-12T09:23:07.271Z,12.42
2023-02-12T09:25:38.029Z,13.39
2023-02-12T09:28:04.839Z,12.57
2023-02-12T09:30:31.562Z,12.50
2023-02-12T09:32:58.266Z,11.50
2023-02-12T09:35:25.033Z,12.26
2023-02-12T09:37:52.868Z,11.81
2023-02-12T09:40:22.751Z,11.83
2023-02-12T09:42:52.852Z,11.72
2023-02-12T09:45:23.678Z,12.66
2023-02-12T09:48:03.193Z,12.49
2023-02-12T09:50:29.859Z,12.85
2023-02-12T09:52:58.137Z,12.09
2023-02-12T09:55:26.093Z,12.05
2023-02-12T09:57:54.868Z,12.33
2023-02-12T10:00:29.068Z,12.35
2023-02-12T10:02:55.772Z,12.45
2023-02-12T10:05:26.094Z,11.95
2023-02-12T10:08:04.811Z,12.54
2023-02-12T10:10:37.658Z,12.10
2023-02-12T10:13:05.051Z,11.89
2023-02-12T10:15:34.641Z,12.05
2023-02-12T10:18:07.467Z,11.02
2023-02-12T10:20:34.136Z,11.66
2023-02-12T10:23:06.641Z,12.10
2023-02-12T10:25:48.853Z,12.07
2023-02-12T10:28:24.474Z,12.09
2023-02-12T10:31:00.665Z,11.69
2023-02-12T10:33:28.642Z,11.64
2023-02-12T10:35:57.795Z,12.05
2023-02-12T10:38:26.710Z,11.60
2023-02-12T10:40:55.402Z,12.71
2023-02-12T10:43:22.077Z,12.52
2023-02-12T10:45:50.657Z,13.00
2023-02-12T10:48:20.794Z,12.03
2023-02-12T10:51:16.780Z,12.71
2023-02-12T10:53:44.686Z,11.31
2023-02-12T10:56:21.835Z,12.85
2023-02-12T10:58:56.031Z,12.80
2023-02-12T11:01:27.330Z,13.55
2023-02-12T11:03:54.621Z,13.55
2023-02-12T11:06:26.053Z,12.74
2023-02-12T11:08:52.906Z,12.27
2023-02-12T11:11:22.482Z,11.99
2023-02-12T11:13:55.408Z,11.67
2023-02-12T11:16:29.088Z,11.05
2023-02-12T11:19:02.607Z,10.81
2023-02-12T11:21:29.344Z,10.95
2023-02-12T11:23:56.060Z,11.50
2023-02-12T11:26:24.302Z,11.49
2023-02-12T11:28:58.212Z,12.29
2023-02-12T11:31:28.674Z,13.20
2023-02-12T11:34:04.448Z,13.27
2023-02-12T11:36:31.161Z,13.83
2023-02-12T11:38:58.162Z,12.29
2023-02-12T11:41:34.728Z,12.75
2023-02-12T11:44:01.682Z,12.72
2023-02-12T11:46:28.419Z,12.67
2023-02-12T11:48:55.652Z,12.42
2023-02-12T11:51:24.902Z,12.05
2023-02-12T11:53:52.323Z,11.74
2023-02-12T11:56:19.246Z,11.25
2023-02-12T11:58:46.470Z,11.83
2023-02-12T12:01:16.183Z,11.21
2023-02-12T12:03:47.138Z,9.50
2023-02-12T12:06:16.900Z,9.93
2023-02-12T12:08:49.771Z,10.49
2023-02-12T12:11:17.461Z,10.56
2023-02-12T12:13:52.660Z,10.75
2023-02-12T12:16:40.023Z,10.08
2023-02-12T12:19:29.140Z,10.42
2023-02-12T12:22:17.836Z,10.15
2023-02-12T12:24:46.490Z,11.30
2023-02-12T12:27:36.351Z,12.23
2023-02-12T12:30:06.952Z,12.29
2023-02-12T12:32:34.412Z,11.94
2023-02-12T12:35:01.084Z,10.91
2023-02-12T12:37:27.757Z,10.35
2023-02-12T12:39:58.702Z,10.06
2023-02-12T12:42:44.159Z,10.19
2023-02-12T12:45:19.982Z,10.26
2023-02-12T12:47:58.816Z,9.84
2023-02-12T12:50:37.420Z,10.05
2023-02-12T12:53:07.461Z,9.99
2023-02-12T12:55:37.125Z,10.10
2023-02-12T12:58:19.484Z,10.32
2023-02-12T13:00:55.114Z,9.88
2023-02-12T13:03:52.694Z,9.52
2023-02-12T13:06:37.974Z,9.80
2023-02-12T13:09:19.771Z,10.04
2023-02-12T13:11:49.822Z,9.67
2023-02-12T13:14:36.188Z,10.59
2023-02-12T13:17:10.870Z,10.33
2023-02-12T13:19:41.431Z,11.09
2023-02-12T13:22:08.075Z,11.15
2023-02-12T13:24:38.110Z,11.85
2023-02-12T13:27:15.112Z,11.76
2023-02-12T13:30:00.529Z,11.88
2023-02-12T13:32:43.449Z,11.35
2023-02-12T13:35:14.741Z,10.96
2023-02-12T13:37:46.683Z,10.79
2023-02-12T13:40:17.571Z,10.68
2023-02-12T13:42:49.786Z,10.75
2023-02-12T13:45:18.282Z,10.57
2023-02-12T13:47:54.017Z,10.69
2023-02-12T13:50:20.693Z,10.71
2023-02-12T13:52:47.352Z,10.31
2023-02-12T13:55:17.009Z,10.29
2023-02-12T13:57:43.732Z,10.26
2023-02-12T14:00:30.695Z,10.29
2023-02-12T14:02:57.353Z,9.48
2023-02-12T14:05:30.851Z,9.99
2023-02-12T14:08:02.368Z,9.66
2023-02-12T14:10:38.748Z,10.24
2023-02-12T14:13:14.580Z,10.03
2023-02-12T14:15:41.798Z,11.01
2023-02-12T14:18:22.142Z,10.28
2023-02-12T14:20:48.875Z,10.82
2023-02-12T14:23:23.178Z,10.27
2023-02-12T14:25:56.423Z,9.96
2023-02-12T14:28:26.452Z,10.58
2023-02-12T14:31:11.980Z,10.65
2023-02-12T14:33:38.696Z,10.57
2023-02-12T14:36:14.642Z,10.72
2023-02-12T14:38:47.470Z,10.38
2023-02-12T14:41:43.268Z,10.41
2023-02-12T14:44:26.925Z,10.28
2023-02-12T14:46:54.397Z,10.18
2023-02-12T14:49:25.412Z,10.52
2023-02-12T14:51:52.073Z,11.00
2023-02-12T14:54:37.159Z,10.49
2023-02-12T14:57:19.103Z,9.43
2023-02-12T14:59:45.825Z,9.32
2023-02-12T15:02:14.733Z,9.19
2023-02-12T15:04:41.450Z,9.34
2023-02-12T15:07:09.113Z,9.50
2023-02-12T15:09:46.958Z,9.04
2023-02-12T15:12:26.912Z,9.40
2023-02-12T15:14:56.959Z,9.70
2023-02-12T15:17:28.299Z,10.26
2023-02-12T15:19:57.529Z,9.73
2023-02-12T15:22:29.842Z,10.12
2023-02-12T15:25:15.095Z,9.91
2023-02-12T15:27:44.982Z,9.87
2023-02-12T15:30:25.585Z,9.79
2023-02-12T15:32:53.204Z,9.43
2023-02-12T15:35:23.041Z,9.56
2023-02-12T15:37:49.751Z,9.54
2023-02-12T15:40:16.740Z,9.03
2023-02-12T15:42:56.773Z,9.93
2023-02-12T15:45:27.425Z,9.44
2023-02-12T15:48:09.524Z,10.15
2023-02-12T15:51:06.508Z,9.88
2023-02-12T15:53:33.203Z,10.08
2023-02-12T15:56:00.104Z,9.97
2023-02-12T15:58:33.294Z,9.10
2023-02-12T16:01:01.444Z,8.90
2023-02-12T16:03:31.489Z,9.00
2023-02-12T16:06:01.763Z,8.60
2023-02-12T16:08:28.461Z,8.56
2023-02-12T16:10:55.156Z,8.87
2023-02-12T16:13:31.835Z,8.92
2023-02-12T16:16:14.709Z,9.21
2023-02-12T16:18:42.046Z,8.40
2023-02-12T16:21:19.872Z,8.45
2023-02-12T16:23:47.170Z,8.16
2023-02-12T16:26:20.726Z,8.76
2023-02-12T16:28:48.465Z,8.83
2023-02-12T16:31:15.539Z,7.82
2023-02-12T16:33:45.940Z,8.18
2023-02-12T16:36:27.034Z,8.19
2023-02-12T16:39:03.854Z,8.49
2023-02-12T16:41:34.205Z,8.06
2023-02-12T16:44:00.874Z,8.52
2023-02-12T16:46:34.738Z,8.28
2023-02-12T16:49:01.714Z,7.75
2023-02-12T16:51:29.763Z,7.79
2023-02-12T16:53:57.782Z,7.78
2023-02-12T16:56:25.588Z,8.09
2023-02-12T16:58:55.540Z,7.79
2023-02-12T17:01:32.009Z,8.10
2023-02-12T17:03:58.930Z,7.46
2023-02-12T17:06:26.895Z,7.67
2023-02-12T17:08:53.654Z,7.69
2023-02-12T17:11:20.833Z,8.38
2023-02-12T17:13:48.434Z,7.72
2023-02-12T17:16:29.427Z,8.03
2023-02-12T17:18:57.356Z,8.37
2023-02-12T17:21:24.680Z,7.95
2023-02-12T17:23:51.503Z,8.15
2023-02-12T17:26:18.137Z,9.16
2023-02-12T17:28:44.838Z,10.33
2023-02-12T17:31:11.795Z,10.51
2023-02-12T17:33:38.704Z,10.29
2023-02-12T17:36:05.631Z,11.15
2023-02-12T17:38:32.505Z,10.58
2023-02-12T17:40:59.553Z,9.50
2023-02-12T17:43:26.292Z,8.86
2023-02-12T17:45:53.630Z,8.56
2023-02-12T17:48:22.840Z,8.58
2023-02-12T17:50:53.582Z,8.09
2023-02-12T17:53:20.248Z,7.82
2023-02-12T17:55:46.930Z,7.79
2023-02-12T17:58:13.593Z,7.94
2023-02-12T18:00:43.214Z,8.53
2023-02-12T18:03:09.945Z,8.29
2023-02-12T18:05:40.540Z,7.58
2023-02-12T18:08:07.223Z,7.31
2023-02-12T18:10:33.892Z,7.76
2023-02-12T18:13:00.561Z,9.55
2023-02-12T18:15:27.260Z,9.47
2023-02-12T18:17:53.936Z,9.33
2023-02-12T18:20:21.297Z,9.19
2023-02-12T18:22:50.216Z,8.50
2023-02-12T18:25:18.055Z,9.15
2023-02-12T18:27:45.362Z,9.06
2023-02-12T18:30:12.298Z,9.06
2023-02-12T18:32:38.973Z,9.28
2023-02-12T18:35:06.248Z,8.97
2023-02-12T18:37:33.010Z,8.60
2023-02-12T18:40:00.499Z,9.12
2023-02-12T18:42:28.668Z,9.50
2023-02-12T18:44:55.469Z,8.57
2023-02-12T18:47:22.145Z,7.36
2023-02-12T18:49:48.825Z,7.34
2023-02-12T18:52:15.521Z,7.80
2023-02-12T18:54:44.213Z,7.00
2023-02-12T18:57:10.969Z,7.04
2023-02-12T18:59:37.633Z,7.41
2023-02-12T19:02:04.775Z,6.81
2023-02-12T19:04:31.624Z,7.10
2023-02-12T19:06:59.752Z,7.48
2023-02-12T19:09:26.838Z,8.84
2023-02-12T19:11:54.622Z,7.70
2023-02-12T19:14:22.047Z,8.86
2023-02-12T19:16:48.941Z,8.31
2023-02-12T19:19:15.817Z,7.93
2023-02-12T19:21:42.636Z,9.35
2023-02-12T19:24:10.650Z,9.61
2023-02-12T19:26:37.533Z,10.20
2023-02-12T19:29:04.907Z,9.41
2023-02-12T19:31:33.322Z,8.91
2023-02-12T19:34:08.412Z,8.69
2023-02-12T19:36:35.869Z,9.44
2023-02-12T19:39:03.981Z,9.23
2023-02-12T19:41:30.714Z,10.20
2023-02-12T19:43:58.870Z,10.89
2023-02-12T19:46:26.650Z,9.60
2023-02-12T19:48:59.475Z,9.47
2023-02-12T19:51:26.424Z,9.46
2023-02-12T19:53:53.313Z,9.51
2023-02-12T19:56:20.038Z,10.25
2023-02-12T19:58:46.700Z,10.30
2023-02-12T20:01:19.987Z,9.41
2023-02-12T20:03:47.020Z,9.69
2023-02-12T20:06:14.944Z,10.26
2023-02-12T20:08:41.865Z,9.14
2023-02-12T20:11:11.470Z,8.81
2023-02-12T20:13:38.205Z,9.86
2023-02-12T20:16:16.137Z,9.61
2023-02-12T20:18:43.721Z,9.61
2023-02-12T20:21:14.505Z,8.94
2023-02-12T20:23:41.288Z,8.36
2023-02-12T20:26:08.813Z,8.96
2023-02-12T20:28:35.797Z,8.27
2023-02-12T20:31:32.089Z,8.69
2023-02-12T20:34:00.359Z,9.32
2023-02-12T20:36:27.659Z,8.28
2023-02-12T20:38:56.176Z,8.67
2023-02-12T20:41:23.713Z,7.68
2023-02-12T20:43:50.375Z,8.19
2023-02-12T20:46:18.468Z,8.85
2023-02-12T20:48:45.216Z,8.70
2023-02-12T20:51:12.906Z,9.24
2023-02-12T20:53:39.809Z,8.48
2023-02-12T20:56:11.068Z,9.48
2023-02-12T20:58:39.014Z,9.48
2023-02-12T21:01:06.361Z,8.79
2023-02-12T21:03:33.071Z,7.81
2023-02-12T21:05:59.741Z,8.51
2023-02-12T21:08:26.469Z,8.40
2023-02-12T21:11:06.841Z,7.05
2023-02-12T21:13:33.604Z,7.46
2023-02-12T21:16:03.648Z,6.48
2023-02-12T21:18:30.398Z,6.90
2023-02-12T21:21:00.977Z,7.50
2023-02-12T21:23:27.595Z,7.43
2023-02-12T21:26:07.460Z,6.77
2023-02-12T21:28:34.457Z,6.79
2023-02-12T21:31:12.695Z,7.12
2023-02-12T21:33:39.883Z,6.52
2023-02-12T21:36:07.380Z,7.03
2023-02-12T21:38:35.001Z,7.50
2023-02-12T21:41:08.762Z,9.23
2023-02-12T21:43:35.814Z,9.30
2023-02-12T21:46:02.649Z,8.73
2023-02-12T21:48:29.345Z,8.96
2023-02-12T21:50:56.361Z,8.71
2023-02-12T21:53:23.184Z,9.11
2023-02-12T21:55:49.884Z,9.24
2023-02-12T21:58:16.582Z,8.27
2023-02-12T22:00:43.282Z,8.26
2023-02-12T22:03:09.951Z,8.14
2023-02-12T22:05:36.619Z,8.22
2023-02-12T22:08:03.432Z,9.13
2023-02-12T22:10:30.173Z,9.68
2023-02-12T22:12:56.906Z,9.15
2023-02-12T22:15:23.632Z,9.17
2023-02-12T22:17:50.297Z,8.90
2023-02-12T22:20:16.970Z,8.22
2023-02-12T22:22:43.605Z,8.91
2023-02-12T22:25:10.271Z,9.42
2023-02-12T22:27:36.965Z,9.43
2023-02-12T22:30:03.747Z,9.35
2023-02-12T22:32:30.577Z,8.58
2023-02-12T22:34:57.350Z,8.49
2023-02-12T22:37:24.036Z,8.40
2023-02-12T22:39:50.784Z,8.16
2023-02-12T22:42:17.452Z,8.06
2023-02-12T22:44:44.132Z,7.79
2023-02-12T22:47:10.818Z,7.96
2023-02-12T22:49:37.444Z,8.00
2023-02-12T22:52:04.205Z,8.17
2023-02-12T22:54:30.877Z,8.92
2023-02-12T22:56:57.576Z,9.01
2023-02-12T22:59:24.232Z,8.66
2023-02-12T23:01:50.972Z,8.31
2023-02-12T23:04:18.884Z,7.59
2023-02-12T23:06:45.588Z,8.66
2023-02-12T23:09:13.398Z,8.64
2023-02-12T23:11:40.071Z,8.17
2023-02-12T23:14:06.816Z,7.22
2023-02-12T23:16:34.286Z,6.33
2023-02-12T23:19:01.264Z,5.50
2023-02-12T23:21:29.114Z,6.51
2023-02-12T23:23:56.036Z,6.73
2023-02-12T23:26:22.734Z,6.86
2023-02-12T23:28:49.472Z,6.95
2023-02-12T23:31:16.302Z,6.70
2023-02-12T23:33:43.006Z,6.75
2023-02-12T23:36:09.856Z,7.52
2023-02-12T23:38:36.519Z,6.74
2023-02-12T23:41:03.170Z,6.65
2023-02-12T23:43:30.091Z,6.96
2023-02-12T23:45:56.784Z,7.60
2023-02-12T23:48:23.518Z,8.08
2023-02-12T23:50:50.206Z,7.34
2023-02-12T23:53:17.929Z,6.76
2023-02-12T23:55:44.602Z,6.55
2023-02-12T23:58:11.343Z,7.41
